createdAt,value
2023-04-20T00:00:12.302Z,11.82
2023-04-20T00:03:04.819Z,11.87
2023-04-20T00:05:55.234Z,11.86
2023-04-20T00:08:45.079Z,11.90
2023-04-20T00:11:35.752Z,11.93
2023-04-20T00:14:24.997Z,11.88
2023-04-20T00:17:14.250Z,11.86
2023-04-20T00:20:05.585Z,11.89
2023-04-20T00:22:54.777Z,11.85
2023-04-20T00:25:43.974Z,11.80
2023-04-20T00:28:34.663Z,11.54
2023-04-20T00:31:24.031Z,11.58
2023-04-20T00:34:13.565Z,11.58
2023-04-20T00:37:03.084Z,11.56
2023-04-20T00:39:52.489Z,11.45
2023-04-20T00:42:42.407Z,11.49
2023-04-20T00:45:33.096Z,11.47
2023-04-20T00:48:23.356Z,11.47
2023-04-20T00:51:12.930Z,11.42
2023-04-20T00:54:02.580Z,11.45
2023-04-20T00:56:53.701Z,11.41
2023-04-20T00:59:43.210Z,11.35
2023-04-20T01:02:33.936Z,11.31
2023-04-20T01:05:24.153Z,11.40
2023-04-20T01:08:13.498Z,11.40
2023-04-20T01:11:02.772Z,11.30
2023-04-20T01:13:52.209Z,11.21
2023-04-20T01:16:41.384Z,11.23
2023-04-20T01:19:32.079Z,11.14
2023-04-20T01:22:23.215Z,11.09
2023-04-20T01:25:12.610Z,11.06
2023-04-20T01:28:02.178Z,11.04
2023-04-20T01:30:51.662Z,10.93
2023-04-20T01:33:41.426Z,10.99
2023-04-20T01:36:31.001Z,10.87
2023-04-20T01:39:22.305Z,11.10
2023-04-20T01:42:11.622Z,11.03
2023-04-20T01:45:01.031Z,11.05
2023-04-20T01:47:50.362Z,11.00
2023-04-20T01:50:39.682Z,11.08
2023-04-20T01:53:29.027Z,11.05
2023-04-20T01:56:19.664Z,11.01
2023-04-20T01:59:08.950Z,10.90
2023-04-20T02:01:58.401Z,10.79
2023-04-20T02:04:47.764Z,10.76
2023-04-20T02:07:37.163Z,10.84
2023-04-20T02:10:27.004Z,10.78
2023-04-20T02:13:17.708Z,10.85
2023-04-20T02:16:08.768Z,10.77
2023-04-20T02:18:58.163Z,10.78
2023-04-20T02:21:47.442Z,10.75
2023-04-20T02:24:36.872Z,10.66
2023-04-20T02:27:26.328Z,10.62
2023-04-20T02:30:17.089Z,10.63
2023-04-20T02:33:06.923Z,10.64
2023-04-20T02:35:56.317Z,10.63
2023-04-20T02:38:45.734Z,10.58
2023-04-20T02:41:34.956Z,10.69
2023-04-20T02:44:25.689Z,10.57
2023-04-20T02:47:16.396Z,10.61
2023-04-20T02:50:07.160Z,10.64
2023-04-20T02:53:07.402Z,10.59
2023-04-20T02:55:59.055Z,10.56
2023-04-20T02:59:01.572Z,10.58
2023-04-20T03:02:10.210Z,10.52
2023-04-20T03:05:02.191Z,10.53
2023-04-20T03:08:01.877Z,10.49
2023-04-20T03:10:51.744Z,10.49
2023-04-20T03:13:43.218Z,10.45
2023-04-20T03:16:32.985Z,10.43
2023-04-20T03:19:22.707Z,10.38
2023-04-20T03:22:13.375Z,10.37
2023-04-20T03:25:02.827Z,10.32
2023-04-20T03:28:15.168Z,10.27
2023-04-20T03:31:06.646Z,10.30
2023-04-20T03:33:56.589Z,10.29
2023-04-20T03:36:45.917Z,10.37
2023-04-20T03:39:36.660Z,10.24
2023-04-20T03:42:26.515Z,10.27
2023-04-20T03:45:17.376Z,10.16
2023-04-20T03:48:07.288Z,10.26
2023-04-20T03:50:56.582Z,10.21
2023-04-20T03:53:45.822Z,10.18
2023-04-20T03:56:37.726Z,10.17
2023-04-20T03:59:27.260Z,10.20
2023-04-20T04:02:16.895Z,10.18
2023-04-20T04:05:09.543Z,10.14
2023-04-20T04:07:58.881Z,10.17
2023-04-20T04:10:48.274Z,10.15
2023-04-20T04:13:38.955Z,10.08
2023-04-20T04:16:30.796Z,10.05
2023-04-20T04:19:20.245Z,10.00
2023-04-20T04:22:10.782Z,10.00
2023-04-20T04:25:11.828Z,10.03
2023-04-20T04:28:04.612Z,10.00
2023-04-20T04:30:57.372Z,10.11
2023-04-20T04:33:47.052Z,9.94
2023-04-20T04:36:46.399Z,10.01
2023-04-20T04:39:39.776Z,10.01
2023-04-20T04:42:36.404Z,9.95
2023-04-20T04:45:28.606Z,9.94
2023-04-20T04:48:19.869Z,9.92
2023-04-20T04:51:09.631Z,9.93
2023-04-20T04:53:58.905Z,9.88
2023-04-20T04:56:48.139Z,9.86
2023-04-20T04:59:37.436Z,9.86
2023-04-20T05:02:26.936Z,9.93
2023-04-20T05:05:17.942Z,9.89
2023-04-20T05:08:07.386Z,9.80
2023-04-20T05:10:58.199Z,9.87
2023-04-20T05:13:48.599Z,9.80
2023-04-20T05:16:38.113Z,9.81
2023-04-20T05:19:27.470Z,9.75
2023-04-20T05:22:18.358Z,9.82
2023-04-20T05:25:08.980Z,9.83
2023-04-20T05:27:58.283Z,9.87
2023-04-20T05:30:47.620Z,9.83
2023-04-20T05:33:36.868Z,9.87
2023-04-20T05:36:26.558Z,9.81
2023-04-20T05:39:17.687Z,9.77
2023-04-20T05:42:07.290Z,9.82
2023-04-20T05:44:56.517Z,9.87
2023-04-20T05:47:55.457Z,9.83
2023-04-20T05:50:44.760Z,9.89
2023-04-20T05:53:33.980Z,9.81
2023-04-20T05:56:24.662Z,9.93
2023-04-20T05:59:14.009Z,9.95
2023-04-20T06:02:03.304Z,9.89
2023-04-20T06:04:53.041Z,9.97
2023-04-20T06:07:42.406Z,9.92
2023-04-20T06:10:34.323Z,9.99
2023-04-20T06:13:25.206Z,10.01
2023-04-20T06:16:14.489Z,10.03
2023-04-20T06:19:03.790Z,10.05
2023-04-20T06:21:53.120Z,10.15
2023-04-20T06:24:43.192Z,10.12
2023-04-20T06:27:32.524Z,10.21
2023-04-20T06:30:23.859Z,10.20
2023-04-20T06:33:17.195Z,10.22
2023-04-20T06:36:08.970Z,10.27
2023-04-20T06:38:58.264Z,10.31
2023-04-20T06:41:47.536Z,10.28
2023-04-20T06:44:37.316Z,10.36
2023-04-20T06:47:32.065Z,10.34
2023-04-20T06:50:22.156Z,10.42
2023-04-20T06:53:11.472Z,10.53
2023-04-20T06:56:00.967Z,10.53
2023-04-20T06:58:50.307Z,10.50
2023-04-20T07:01:39.712Z,10.64
2023-04-20T07:04:30.548Z,10.68
2023-04-20T07:07:19.907Z,10.68
2023-04-20T07:10:10.661Z,10.69
2023-04-20T07:12:59.994Z,10.74
2023-04-20T07:15:49.426Z,10.56
2023-04-20T07:18:38.974Z,10.90
2023-04-20T07:21:30.797Z,11.30
2023-04-20T07:24:20.081Z,11.66
2023-04-20T07:27:09.297Z,11.98
2023-04-20T07:29:59.978Z,12.25
2023-04-20T07:32:50.424Z,12.46
2023-04-20T07:35:39.813Z,12.74
2023-04-20T07:38:30.668Z,13.01
2023-04-20T07:41:20.042Z,13.13
2023-04-20T07:44:09.520Z,13.23
2023-04-20T07:46:58.815Z,13.39
2023-04-20T07:49:48.324Z,13.51
2023-04-20T07:52:37.774Z,13.68
2023-04-20T07:55:28.373Z,13.73
2023-04-20T07:58:17.770Z,13.91
2023-04-20T08:01:07.249Z,13.97
2023-04-20T08:03:56.732Z,13.90
2023-04-20T08:06:46.077Z,14.15
2023-04-20T08:09:35.485Z,14.41
2023-04-20T08:12:26.092Z,14.47
2023-04-20T08:15:15.509Z,14.58
2023-04-20T08:18:05.622Z,14.72
2023-04-20T08:20:55.003Z,14.47
2023-04-20T08:23:44.315Z,14.84
2023-04-20T08:26:33.815Z,15.07
2023-04-20T08:29:24.458Z,15.01
2023-04-20T08:32:13.888Z,15.31
2023-04-20T08:35:04.300Z,15.40
2023-04-20T08:37:53.697Z,15.55
2023-04-20T08:40:43.155Z,15.63
2023-04-20T08:43:33.534Z,15.90
2023-04-20T08:46:25.818Z,16.08
2023-04-20T08:49:17.682Z,16.26
2023-04-20T08:52:07.619Z,16.39
2023-04-20T08:54:58.013Z,16.50
2023-04-20T08:57:49.411Z,16.56
2023-04-20T09:00:48.460Z,16.37
2023-04-20T09:03:41.252Z,16.43
2023-04-20T09:06:31.642Z,16.10
2023-04-20T09:09:22.694Z,16.30
2023-04-20T09:12:12.032Z,16.52
2023-04-20T09:15:01.275Z,16.71
2023-04-20T09:17:50.701Z,16.73
2023-04-20T09:20:41.834Z,16.45
2023-04-20T09:23:31.434Z,16.39
2023-04-20T09:26:20.612Z,16.59
2023-04-20T09:29:18.593Z,16.68
2023-04-20T09:32:08.046Z,17.00
2023-04-20T09:34:57.534Z,17.29
2023-04-20T09:37:51.849Z,17.64
2023-04-20T09:40:41.199Z,17.71
2023-04-20T09:43:31.843Z,17.95
2023-04-20T09:46:21.194Z,18.03
2023-04-20T09:49:11.895Z,18.23
2023-04-20T09:52:04.612Z,18.48
2023-04-20T09:54:56.345Z,18.64
2023-04-20T09:57:46.952Z,18.63
2023-04-20T10:00:36.257Z,18.77
2023-04-20T10:03:26.256Z,18.79
2023-04-20T10:06:23.573Z,18.77
2023-04-20T10:09:24.565Z,18.68
2023-04-20T10:12:15.127Z,18.91
2023-04-20T10:15:04.945Z,18.91
2023-04-20T10:17:55.596Z,18.76
2023-04-20T10:20:44.950Z,18.91
2023-04-20T10:23:34.168Z,18.70
2023-04-20T10:26:24.498Z,18.51
2023-04-20T10:29:25.587Z,18.24
2023-04-20T10:32:24.699Z,18.58
2023-04-20T10:35:16.176Z,18.75
2023-04-20T10:38:05.597Z,18.95
2023-04-20T10:40:54.786Z,19.36
2023-04-20T10:43:44.592Z,19.43
2023-04-20T10:46:35.363Z,19.71
2023-04-20T10:49:29.029Z,19.58
2023-04-20T10:52:18.194Z,19.87
2023-04-20T10:55:18.841Z,20.05
2023-04-20T10:58:08.447Z,20.14
2023-04-20T11:01:02.534Z,19.84
2023-04-20T11:03:54.559Z,19.91
2023-04-20T11:06:45.649Z,19.95
2023-04-20T11:09:35.093Z,19.65
2023-04-20T11:12:24.304Z,19.48
2023-04-20T11:15:13.962Z,19.59
2023-04-20T11:18:09.079Z,19.41
2023-04-20T11:20:59.841Z,19.90
2023-04-20T11:23:50.394Z,19.90
2023-04-20T11:26:40.981Z,20.17
2023-04-20T11:29:35.016Z,20.30
2023-04-20T11:32:24.815Z,20.25
2023-04-20T11:35:14.563Z,20.27
2023-04-20T11:38:05.705Z,20.06
2023-04-20T11:40:55.038Z,19.83
2023-04-20T11:43:45.145Z,19.81
2023-04-20T11:46:37.785Z,19.59
2023-04-20T11:49:28.929Z,19.72
2023-04-20T11:52:18.377Z,19.87
2023-04-20T11:55:11.431Z,19.97
2023-04-20T11:58:00.656Z,20.16
2023-04-20T12:00:50.833Z,20.29
2023-04-20T12:03:40.302Z,20.22
2023-04-20T12:06:30.058Z,20.13
2023-04-20T12:09:19.354Z,19.82
2023-04-20T12:12:10.452Z,20.01
2023-04-20T12:14:59.704Z,20.23
2023-04-20T12:17:48.948Z,20.22
2023-04-20T12:20:38.359Z,20.34
2023-04-20T12:23:27.615Z,20.35
2023-04-20T12:26:17.215Z,20.60
2023-04-20T12:29:08.399Z,20.82
2023-04-20T12:31:57.789Z,21.05
2023-04-20T12:34:47.028Z,20.81
2023-04-20T12:37:36.325Z,20.72
2023-04-20T12:40:25.961Z,20.54
2023-04-20T12:43:16.096Z,20.50
2023-04-20T12:46:06.791Z,20.35
2023-04-20T12:48:56.288Z,20.44
2023-04-20T12:51:45.647Z,20.21
2023-04-20T12:54:35.260Z,20.10
2023-04-20T12:57:24.502Z,20.27
2023-04-20T13:00:15.348Z,20.43
2023-04-20T13:03:06.264Z,20.40
2023-04-20T13:05:55.706Z,20.53
2023-04-20T13:08:44.856Z,20.37
2023-04-20T13:11:34.113Z,20.31
2023-04-20T13:14:23.265Z,20.26
2023-04-20T13:17:12.520Z,20.30
2023-04-20T13:20:04.928Z,20.51
2023-04-20T13:22:57.762Z,20.50
2023-04-20T13:25:47.480Z,20.46
2023-04-20T13:28:37.884Z,20.29
2023-04-20T13:31:27.272Z,20.46
2023-04-20T13:34:16.906Z,20.80
2023-04-20T13:37:07.873Z,21.16
2023-04-20T13:39:57.485Z,21.10
2023-04-20T13:42:46.665Z,21.13
2023-04-20T13:45:36.133Z,21.12
2023-04-20T13:48:25.352Z,21.23
2023-04-20T13:51:14.832Z,21.43
2023-04-20T13:54:05.758Z,20.96
2023-04-20T13:56:55.137Z,20.97
2023-04-20T13:59:44.383Z,20.95
2023-04-20T14:02:34.178Z,20.65
2023-04-20T14:05:23.698Z,20.81
2023-04-20T14:08:13.840Z,21.09
2023-04-20T14:11:04.611Z,21.13
2023-04-20T14:13:54.168Z,20.87
2023-04-20T14:16:47.404Z,20.54
2023-04-20T14:19:36.643Z,20.43
2023-04-20T14:22:25.940Z,20.44
2023-04-20T14:25:15.171Z,20.21
2023-04-20T14:28:06.376Z,20.10
2023-04-20T14:30:55.585Z,20.17
2023-04-20T14:33:45.467Z,20.03
2023-04-20T14:36:34.978Z,20.04
2023-04-20T14:39:24.424Z,20.22
2023-04-20T14:42:14.420Z,20.36
2023-04-20T14:45:06.254Z,20.25
2023-04-20T14:47:55.935Z,20.32
2023-04-20T14:50:45.297Z,20.33
2023-04-20T14:53:34.853Z,20.51
2023-04-20T14:56:24.102Z,20.70
2023-04-20T14:59:13.510Z,20.75
2023-04-20T15:02:05.959Z,20.85
2023-04-20T15:04:55.463Z,20.77
2023-04-20T15:07:45.907Z,20.71
2023-04-20T15:10:36.519Z,20.61
2023-04-20T15:13:27.815Z,20.51
2023-04-20T15:16:17.051Z,20.55
2023-04-20T15:19:07.801Z,20.59
2023-04-20T15:21:57.010Z,20.29
2023-04-20T15:24:46.280Z,20.31
2023-04-20T15:27:36.419Z,20.00
2023-04-20T15:30:26.149Z,20.07
2023-04-20T15:33:15.606Z,19.99
2023-04-20T15:36:06.828Z,19.92
2023-04-20T15:38:57.860Z,19.89
2023-04-20T15:41:47.420Z,19.86
2023-04-20T15:44:36.642Z,19.73
2023-04-20T15:47:26.043Z,19.44
2023-04-20T15:50:15.701Z,19.24
2023-04-20T15:53:07.422Z,18.92
2023-04-20T15:56:00.324Z,18.87
2023-04-20T15:58:50.488Z,18.68
2023-04-20T16:01:39.877Z,18.58
2023-04-20T16:04:29.290Z,18.57
2023-04-20T16:07:18.722Z,18.41
2023-04-20T16:10:11.339Z,18.17
2023-04-20T16:13:00.600Z,18.24
2023-04-20T16:15:50.058Z,18.22
2023-04-20T16:18:39.342Z,18.05
2023-04-20T16:21:28.743Z,18.05
2023-04-20T16:24:18.683Z,17.91
2023-04-20T16:27:09.814Z,17.84
2023-04-20T16:29:59.141Z,17.85
2023-04-20T16:32:48.488Z,17.69
2023-04-20T16:35:37.796Z,17.54
2023-04-20T16:38:27.069Z,17.46
2023-04-20T16:41:16.616Z,17.32
2023-04-20T16:44:07.261Z,17.12
2023-04-20T16:46:57.059Z,16.89
2023-04-20T16:49:46.585Z,16.90
2023-04-20T16:52:36.478Z,16.80
2023-04-20T16:55:26.298Z,16.69
2023-04-20T16:58:15.624Z,16.62
2023-04-20T17:01:06.602Z,16.55
2023-04-20T17:03:56.322Z,16.50
2023-04-20T17:06:46.427Z,16.27
2023-04-20T17:09:35.765Z,16.21
2023-04-20T17:12:25.211Z,16.03
2023-04-20T17:15:14.606Z,16.15
2023-04-20T17:18:06.950Z,15.97
2023-04-20T17:20:57.870Z,15.95
2023-04-20T17:23:47.481Z,15.81
2023-04-20T17:26:36.814Z,16.02
2023-04-20T17:29:26.952Z,15.95
2023-04-20T17:32:16.352Z,15.90
2023-04-20T17:35:08.146Z,15.97
2023-04-20T17:37:57.462Z,15.96
2023-04-20T17:40:46.699Z,16.06
2023-04-20T17:43:37.065Z,16.11
2023-04-20T17:46:26.554Z,16.13
2023-04-20T17:49:15.884Z,16.12
2023-04-20T17:52:12.506Z,16.13
2023-04-20T17:55:02.189Z,16.16
2023-04-20T17:57:51.466Z,16.08
2023-04-20T18:00:40.837Z,16.11
2023-04-20T18:03:30.346Z,16.21
2023-04-20T18:06:19.667Z,16.17
2023-04-20T18:09:10.651Z,16.05
2023-04-20T18:11:59.872Z,16.01
2023-04-20T18:14:49.134Z,15.90
2023-04-20T18:17:38.444Z,15.78
2023-04-20T18:20:28.418Z,15.92
2023-04-20T18:23:19.285Z,15.78
2023-04-20T18:26:17.265Z,15.76
2023-04-20T18:29:07.017Z,15.65
2023-04-20T18:31:59.413Z,15.56
2023-04-20T18:34:49.553Z,15.54
2023-04-20T18:37:39.164Z,15.48
2023-04-20T18:40:29.003Z,15.49
2023-04-20T18:43:19.750Z,15.36
2023-04-20T18:46:09.008Z,15.34
2023-04-20T18:48:58.733Z,14.82
2023-04-20T18:51:48.126Z,15.15
2023-04-20T18:54:38.536Z,15.03
2023-04-20T18:57:28.905Z,14.97
2023-04-20T19:00:21.171Z,14.92
2023-04-20T19:03:10.961Z,14.81
2023-04-20T19:06:00.433Z,14.80
2023-04-20T19:08:51.275Z,14.63
2023-04-20T19:11:40.595Z,14.65
2023-04-20T19:14:29.919Z,14.56
2023-04-20T19:17:20.519Z,14.44
2023-04-20T19:20:11.467Z,14.45
2023-04-20T19:23:00.857Z,14.39
2023-04-20T19:25:50.265Z,14.27
2023-04-20T19:28:39.642Z,14.23
2023-04-20T19:31:34.184Z,14.25
2023-04-20T19:34:24.847Z,14.17
2023-04-20T19:37:14.145Z,14.12
2023-04-20T19:40:05.609Z,14.06
2023-04-20T19:42:55.339Z,14.02
2023-04-20T19:45:44.930Z,13.95
2023-04-20T19:48:34.313Z,13.93
2023-04-20T19:51:25.606Z,13.82
2023-04-20T19:54:16.718Z,13.82
2023-04-20T19:57:05.995Z,13.82
2023-04-20T19:59:55.614Z,13.84
2023-04-20T20:02:45.810Z,13.81
2023-04-20T20:05:35.258Z,13.65
2023-04-20T20:08:26.260Z,13.66
2023-04-20T20:11:15.593Z,13.62
2023-04-20T20:14:04.948Z,13.53
2023-04-20T20:16:54.239Z,13.60
2023-04-20T20:19:43.563Z,13.56
2023-04-20T20:22:32.867Z,13.55
2023-04-20T20:25:23.982Z,13.49
2023-04-20T20:28:15.763Z,13.46
2023-04-20T20:31:05.409Z,13.40
2023-04-20T20:33:55.165Z,13.31
2023-04-20T20:36:45.919Z,13.37
2023-04-20T20:39:35.271Z,13.29
2023-04-20T20:42:30.974Z,13.34
2023-04-20T20:45:21.966Z,13.18
2023-04-20T20:48:11.272Z,13.24
2023-04-20T20:51:00.508Z,13.18
2023-04-20T20:53:49.773Z,13.20
2023-04-20T20:56:38.997Z,13.17
2023-04-20T20:59:29.665Z,13.10
2023-04-20T21:02:19.074Z,13.11
2023-04-20T21:05:09.027Z,13.02
2023-04-20T21:07:58.401Z,13.04
2023-04-20T21:10:47.809Z,12.98
2023-04-20T21:13:37.105Z,13.02
2023-04-20T21:16:27.753Z,12.95
2023-04-20T21:19:17.430Z,13.05
2023-04-20T21:22:06.903Z,13.04
2023-04-20T21:24:56.088Z,13.01
2023-04-20T21:27:45.380Z,13.03
2023-04-20T21:30:35.973Z,12.92
2023-04-20T21:33:26.947Z,13.04
2023-04-20T21:36:16.172Z,12.87
2023-04-20T21:39:05.744Z,12.92
2023-04-20T21:41:55.016Z,12.78
2023-04-20T21:44:44.344Z,12.91
2023-04-20T21:47:33.673Z,12.85
2023-04-20T21:50:27.234Z,12.86
2023-04-20T21:53:16.549Z,12.80
2023-04-20T21:56:06.273Z,12.72
2023-04-20T21:58:55.910Z,12.76
2023-04-20T22:01:45.162Z,12.58
2023-04-20T22:04:35.058Z,12.60
2023-04-20T22:07:27.626Z,12.66
2023-04-20T22:10:16.925Z,12.58
2023-04-20T22:13:06.287Z,12.54
2023-04-20T22:15:55.672Z,12.55
2023-04-20T22:18:45.145Z,12.51
2023-04-20T22:21:34.648Z,12.51
2023-04-20T22:24:25.633Z,12.49
2023-04-20T22:27:15.154Z,12.56
2023-04-20T22:30:05.762Z,12.34
2023-04-20T22:32:55.198Z,12.51
2023-04-20T22:35:44.467Z,12.46
2023-04-20T22:38:36.380Z,12.47
2023-04-20T22:41:27.074Z,12.35
2023-04-20T22:44:16.346Z,12.32
2023-04-20T22:47:06.515Z,12.29
2023-04-20T22:49:56.444Z,12.30
2023-04-20T22:52:46.525Z,12.33
2023-04-20T22:55:36.053Z,12.23
2023-04-20T22:58:26.969Z,12.25
2023-04-20T23:01:16.692Z,12.19
2023-04-20T23:04:06.872Z,12.16
2023-04-20T23:06:57.784Z,12.05
2023-04-20T23:09:48.228Z,12.01
2023-04-20T23:12:38.434Z,12.13
2023-04-20T23:15:29.152Z,12.02
2023-04-20T23:18:18.394Z,12.09
2023-04-20T23:21:08.336Z,12.07
2023-04-20T23:23:58.041Z,12.06
2023-04-20T23:26:48.268Z,12.03
2023-04-20T23:29:38.679Z,12.03
2023-04-20T23:32:29.319Z,11.99
2023-04-20T23:35:19.047Z,11.92
2023-04-20T23:38:08.266Z,11.96
2023-04-20T23:40:57.474Z,11.91
2023-04-20T23:43:46.794Z,11.98
2023-04-20T23:46:36.197Z,11.95
2023-04-20T23:49:26.882Z,11.95
2023-04-20T23:52:16.179Z,11.88
2023-04-20T23:55:06.495Z,11.91
2023-04-20T23:57:58.484Z,11.83
